sensor_id;sensor_type;location;lat;lon;timestamp;P1;durP1;ratioP1;P2;durP2;ratioP2
24751;SDS011;27246;52.376;4.628;2023-11-19T00:03:49;25.25;;;5.25;;
24751;SDS011;27246;52.376;4.628;2023-11-19T00:08:52;26.40;;;5.43;;
24751;SDS011;27246;52.376;4.628;2023-11-19T00:13:53;28.92;;;5.82;;
24751;SDS011;27246;52.376;4.628;2023-11-19T00:18:55;21.63;;;5.63;;
24751;SDS011;27246;52.376;4.628;2023-11-19T00:23:57;22.65;;;5.85;;
24751;SDS011;27246;52.376;4.628;2023-11-19T00:28:59;26.45;;;5.13;;
24751;SDS011;27246;52.376;4.628;2023-11-19T00:34:01;28.23;;;5.97;;
24751;SDS011;27246;52.376;4.628;2023-11-19T00:39:04;22.30;;;4.60;;
24751;SDS011;27246;52.376;4.628;2023-11-19T00:44:07;28.65;;;6.60;;
24751;SDS011;27246;52.376;4.628;2023-11-19T00:49:08;25.40;;;6.50;;
24751;SDS011;27246;52.376;4.628;2023-11-19T00:54:14;30.67;;;5.90;;
24751;SDS011;27246;52.376;4.628;2023-11-19T00:59:16;24.75;;;6.63;;
24751;SDS011;27246;52.376;4.628;2023-11-19T01:04:20;27.92;;;5.57;;
24751;SDS011;27246;52.376;4.628;2023-11-19T01:09:22;27.75;;;5.78;;
24751;SDS011;27246;52.376;4.628;2023-11-19T01:14:24;28.55;;;6.25;;
24751;SDS011;27246;52.376;4.628;2023-11-19T01:19:26;28.13;;;6.63;;
24751;SDS011;27246;52.376;4.628;2023-11-19T01:24:30;30.10;;;6.47;;
24751;SDS011;27246;52.376;4.628;2023-11-19T01:29:32;35.90;;;6.72;;
24751;SDS011;27246;52.376;4.628;2023-11-19T01:34:34;41.42;;;9.38;;
24751;SDS011;27246;52.376;4.628;2023-11-19T01:39:37;27.60;;;6.68;;
24751;SDS011;27246;52.376;4.628;2023-11-19T01:44:39;32.10;;;7.78;;
24751;SDS011;27246;52.376;4.628;2023-11-19T01:49:41;30.88;;;7.60;;
24751;SDS011;27246;52.376;4.628;2023-11-19T01:54:43;34.03;;;7.22;;
24751;SDS011;27246;52.376;4.628;2023-11-19T01:59:49;34.10;;;7.57;;
24751;SDS011;27246;52.376;4.628;2023-11-19T02:04:52;31.50;;;7.93;;
24751;SDS011;27246;52.376;4.628;2023-11-19T02:09:54;35.22;;;7.25;;
24751;SDS011;27246;52.376;4.628;2023-11-19T02:14:56;28.35;;;7.32;;
24751;SDS011;27246;52.376;4.628;2023-11-19T02:20:00;33.78;;;6.75;;
24751;SDS011;27246;52.376;4.628;2023-11-19T02:25:12;35.05;;;8.13;;
24751;SDS011;27246;52.376;4.628;2023-11-19T02:30:21;40.15;;;7.65;;
24751;SDS011;27246;52.376;4.628;2023-11-19T02:35:30;33.37;;;7.10;;
24751;SDS011;27246;52.376;4.628;2023-11-19T02:40:33;37.45;;;6.82;;
24751;SDS011;27246;52.376;4.628;2023-11-19T02:45:35;32.45;;;6.80;;
24751;SDS011;27246;52.376;4.628;2023-11-19T02:50:37;34.47;;;7.07;;
24751;SDS011;27246;52.376;4.628;2023-11-19T02:55:39;41.42;;;7.90;;
24751;SDS011;27246;52.376;4.628;2023-11-19T03:00:42;40.25;;;7.18;;
24751;SDS011;27246;52.376;4.628;2023-11-19T03:05:53;37.38;;;7.85;;
24751;SDS011;27246;52.376;4.628;2023-11-19T03:10:55;37.95;;;7.82;;
24751;SDS011;27246;52.376;4.628;2023-11-19T03:15:57;32.05;;;8.35;;
24751;SDS011;27246;52.376;4.628;2023-11-19T03:21:01;30.70;;;6.88;;
24751;SDS011;27246;52.376;4.628;2023-11-19T03:26:04;30.85;;;7.80;;
24751;SDS011;27246;52.376;4.628;2023-11-19T03:31:07;35.13;;;6.63;;
24751;SDS011;27246;52.376;4.628;2023-11-19T03:36:10;30.27;;;6.50;;
24751;SDS011;27246;52.376;4.628;2023-11-19T03:41:13;36.97;;;7.70;;
24751;SDS011;27246;52.376;4.628;2023-11-19T03:46:20;31.33;;;8.10;;
24751;SDS011;27246;52.376;4.628;2023-11-19T03:51:23;38.58;;;7.97;;
24751;SDS011;27246;52.376;4.628;2023-11-19T03:56:25;29.38;;;6.63;;
24751;SDS011;27246;52.376;4.628;2023-11-19T04:01:27;33.33;;;6.65;;
24751;SDS011;27246;52.376;4.628;2023-11-19T04:06:29;37.45;;;7.78;;
24751;SDS011;27246;52.376;4.628;2023-11-19T04:11:31;38.45;;;8.10;;
24751;SDS011;27246;52.376;4.628;2023-11-19T04:16:34;31.20;;;6.50;;
24751;SDS011;27246;52.376;4.628;2023-11-19T04:21:36;34.15;;;7.07;;
24751;SDS011;27246;52.376;4.628;2023-11-19T04:26:45;32.70;;;7.68;;
24751;SDS011;27246;52.376;4.628;2023-11-19T04:31:47;33.33;;;7.10;;
24751;SDS011;27246;52.376;4.628;2023-11-19T04:36:49;32.47;;;6.60;;
24751;SDS011;27246;52.376;4.628;2023-11-19T04:41:51;36.42;;;8.38;;
24751;SDS011;27246;52.376;4.628;2023-11-19T04:46:56;33.20;;;7.00;;
24751;SDS011;27246;52.376;4.628;2023-11-19T04:51:59;28.70;;;7.13;;
24751;SDS011;27246;52.376;4.628;2023-11-19T04:57:01;29.48;;;7.13;;
24751;SDS011;27246;52.376;4.628;2023-11-19T05:02:03;31.58;;;7.68;;
24751;SDS011;27246;52.376;4.628;2023-11-19T05:07:05;29.30;;;6.95;;
24751;SDS011;27246;52.376;4.628;2023-11-19T05:12:08;29.45;;;6.35;;
24751;SDS011;27246;52.376;4.628;2023-11-19T05:17:15;30.20;;;5.55;;
24751;SDS011;27246;52.376;4.628;2023-11-19T05:22:19;35.55;;;6.57;;
24751;SDS011;27246;52.376;4.628;2023-11-19T05:27:22;29.10;;;7.03;;
24751;SDS011;27246;52.376;4.628;2023-11-19T05:32:25;28.50;;;6.75;;
24751;SDS011;27246;52.376;4.628;2023-11-19T05:37:27;31.50;;;7.25;;
24751;SDS011;27246;52.376;4.628;2023-11-19T05:42:29;30.50;;;6.82;;
24751;SDS011;27246;52.376;4.628;2023-11-19T05:47:31;34.83;;;7.15;;
24751;SDS011;27246;52.376;4.628;2023-11-19T05:52:33;30.30;;;6.43;;
24751;SDS011;27246;52.376;4.628;2023-11-19T05:57:36;24.98;;;5.13;;
24751;SDS011;27246;52.376;4.628;2023-11-19T06:02:47;27.90;;;6.90;;
24751;SDS011;27246;52.376;4.628;2023-11-19T06:07:49;33.88;;;6.50;;
24751;SDS011;27246;52.376;4.628;2023-11-19T06:12:52;35.50;;;6.93;;
24751;SDS011;27246;52.376;4.628;2023-11-19T06:17:57;35.45;;;6.50;;
24751;SDS011;27246;52.376;4.628;2023-11-19T06:23:01;28.50;;;6.15;;
24751;SDS011;27246;52.376;4.628;2023-11-19T06:28:03;31.85;;;7.70;;
24751;SDS011;27246;52.376;4.628;2023-11-19T06:33:07;29.17;;;5.88;;
24751;SDS011;27246;52.376;4.628;2023-11-19T06:38:10;28.17;;;5.35;;
24751;SDS011;27246;52.376;4.628;2023-11-19T06:43:12;33.00;;;6.35;;
24751;SDS011;27246;52.376;4.628;2023-11-19T06:48:16;30.90;;;7.68;;
24751;SDS011;27246;52.376;4.628;2023-11-19T06:53:17;26.63;;;6.03;;
24751;SDS011;27246;52.376;4.628;2023-11-19T06:58:19;31.00;;;6.80;;
24751;SDS011;27246;52.376;4.628;2023-11-19T07:03:21;40.65;;;6.50;;
24751;SDS011;27246;52.376;4.628;2023-11-19T07:08:24;31.77;;;6.85;;
24751;SDS011;27246;52.376;4.628;2023-11-19T07:13:26;32.42;;;6.07;;
24751;SDS011;27246;52.376;4.628;2023-11-19T07:18:29;32.78;;;6.07;;
24751;SDS011;27246;52.376;4.628;2023-11-19T07:23:33;27.27;;;5.68;;
24751;SDS011;27246;52.376;4.628;2023-11-19T07:28:38;27.42;;;6.43;;
24751;SDS011;27246;52.376;4.628;2023-11-19T07:33:43;27.35;;;6.47;;
24751;SDS011;27246;52.376;4.628;2023-11-19T07:38:47;32.80;;;7.88;;
24751;SDS011;27246;52.376;4.628;2023-11-19T07:43:49;30.77;;;6.80;;
24751;SDS011;27246;52.376;4.628;2023-11-19T07:48:53;30.25;;;6.38;;
24751;SDS011;27246;52.376;4.628;2023-11-19T07:53:54;25.00;;;5.93;;
24751;SDS011;27246;52.376;4.628;2023-11-19T07:58:56;33.22;;;6.55;;
24751;SDS011;27246;52.376;4.628;2023-11-19T08:03:58;28.23;;;5.32;;
24751;SDS011;27246;52.376;4.628;2023-11-19T08:09:01;28.73;;;7.05;;
24751;SDS011;27246;52.376;4.628;2023-11-19T08:19:35;26.23;;;5.78;;
24751;SDS011;27246;52.376;4.628;2023-11-19T08:25:21;31.27;;;6.05;;
24751;SDS011;27246;52.376;4.628;2023-11-19T08:30:24;23.48;;;5.82;;
24751;SDS011;27246;52.376;4.628;2023-11-19T08:36:03;33.17;;;7.13;;
24751;SDS011;27246;52.376;4.628;2023-11-19T08:41:31;30.63;;;6.47;;
24751;SDS011;27246;52.376;4.628;2023-11-19T08:46:47;29.73;;;5.75;;
24751;SDS011;27246;52.376;4.628;2023-11-19T08:52:29;25.20;;;6.57;;
24751;SDS011;27246;52.376;4.628;2023-11-19T09:03:26;27.30;;;7.32;;
24751;SDS011;27246;52.376;4.628;2023-11-19T09:08:28;28.13;;;6.93;;
24751;SDS011;27246;52.376;4.628;2023-11-19T09:42:01;29.25;;;6.28;;
24751;SDS011;27246;52.376;4.628;2023-11-19T09:47:03;27.42;;;6.65;;
24751;SDS011;27246;52.376;4.628;2023-11-19T09:58:00;37.75;;;6.55;;
24751;SDS011;27246;52.376;4.628;2023-11-19T10:03:23;32.55;;;5.43;;
24751;SDS011;27246;52.376;4.628;2023-11-19T10:09:07;38.63;;;8.40;;
24751;SDS011;27246;52.376;4.628;2023-11-19T10:14:09;29.98;;;5.55;;
24751;SDS011;27246;52.376;4.628;2023-11-19T10:19:18;29.42;;;5.93;;
24751;SDS011;27246;52.376;4.628;2023-11-19T10:24:31;22.90;;;5.88;;
24751;SDS011;27246;52.376;4.628;2023-11-19T10:29:47;25.87;;;5.37;;
24751;SDS011;27246;52.376;4.628;2023-11-19T10:35:18;27.80;;;6.38;;
24751;SDS011;27246;52.376;4.628;2023-11-19T10:40:38;20.95;;;5.38;;
24751;SDS011;27246;52.376;4.628;2023-11-19T10:45:45;24.52;;;5.55;;
24751;SDS011;27246;52.376;4.628;2023-11-19T10:50:49;29.67;;;6.97;;
24751;SDS011;27246;52.376;4.628;2023-11-19T10:55:56;27.20;;;6.25;;
24751;SDS011;27246;52.376;4.628;2023-11-19T11:02:24;23.77;;;6.10;;
24751;SDS011;27246;52.376;4.628;2023-11-19T11:14:37;31.23;;;6.80;;
24751;SDS011;27246;52.376;4.628;2023-11-19T11:19:42;26.92;;;7.57;;
24751;SDS011;27246;52.376;4.628;2023-11-19T11:25:02;28.88;;;6.95;;
24751;SDS011;27246;52.376;4.628;2023-11-19T11:35:52;23.95;;;4.70;;
24751;SDS011;27246;52.376;4.628;2023-11-19T12:02:13;26.38;;;5.30;;
24751;SDS011;27246;52.376;4.628;2023-11-19T12:07:24;32.45;;;7.10;;
24751;SDS011;27246;52.376;4.628;2023-11-19T12:12:27;35.63;;;7.63;;
24751;SDS011;27246;52.376;4.628;2023-11-19T12:17:37;28.17;;;6.13;;
24751;SDS011;27246;52.376;4.628;2023-11-19T12:22:47;22.85;;;6.10;;
24751;SDS011;27246;52.376;4.628;2023-11-19T12:28:11;25.90;;;5.60;;
24751;SDS011;27246;52.376;4.628;2023-11-19T12:33:16;22.13;;;4.90;;
24751;SDS011;27246;52.376;4.628;2023-11-19T12:38:23;29.42;;;5.68;;
24751;SDS011;27246;52.376;4.628;2023-11-19T12:43:27;24.23;;;5.22;;
24751;SDS011;27246;52.376;4.628;2023-11-19T12:48:30;25.52;;;5.28;;
24751;SDS011;27246;52.376;4.628;2023-11-19T12:53:46;29.17;;;6.05;;
24751;SDS011;27246;52.376;4.628;2023-11-19T12:58:50;22.25;;;4.80;;
24751;SDS011;27246;52.376;4.628;2023-11-19T13:03:57;23.00;;;5.38;;
24751;SDS011;27246;52.376;4.628;2023-11-19T13:09:02;26.95;;;5.72;;
24751;SDS011;27246;52.376;4.628;2023-11-19T13:14:05;25.75;;;5.10;;
24751;SDS011;27246;52.376;4.628;2023-11-19T13:19:10;25.85;;;5.75;;
24751;SDS011;27246;52.376;4.628;2023-11-19T13:24:13;25.95;;;5.53;;
24751;SDS011;27246;52.376;4.628;2023-11-19T13:29:51;27.00;;;5.88;;
24751;SDS011;27246;52.376;4.628;2023-11-19T13:34:55;20.75;;;5.30;;
24751;SDS011;27246;52.376;4.628;2023-11-19T13:40:07;32.90;;;5.95;;
24751;SDS011;27246;52.376;4.628;2023-11-19T13:45:18;19.95;;;5.03;;
24751;SDS011;27246;52.376;4.628;2023-11-19T13:50:27;23.40;;;6.00;;
24751;SDS011;27246;52.376;4.628;2023-11-19T13:55:32;26.70;;;4.65;;
24751;SDS011;27246;52.376;4.628;2023-11-19T14:00:39;22.63;;;5.38;;
24751;SDS011;27246;52.376;4.628;2023-11-19T14:05:51;25.23;;;5.55;;
24751;SDS011;27246;52.376;4.628;2023-11-19T14:10:56;22.65;;;4.90;;
24751;SDS011;27246;52.376;4.628;2023-11-19T14:15:59;25.67;;;5.18;;
24751;SDS011;27246;52.376;4.628;2023-11-19T14:21:01;19.83;;;5.68;;
24751;SDS011;27246;52.376;4.628;2023-11-19T14:26:05;32.08;;;5.68;;
24751;SDS011;27246;52.376;4.628;2023-11-19T14:31:10;23.77;;;5.50;;
24751;SDS011;27246;52.376;4.628;2023-11-19T14:36:17;24.80;;;5.38;;
24751;SDS011;27246;52.376;4.628;2023-11-19T14:41:22;31.70;;;7.53;;
24751;SDS011;27246;52.376;4.628;2023-11-19T14:46:24;31.58;;;6.97;;
24751;SDS011;27246;52.376;4.628;2023-11-19T14:51:29;33.92;;;7.20;;
24751;SDS011;27246;52.376;4.628;2023-11-19T14:56:39;32.65;;;6.45;;
24751;SDS011;27246;52.376;4.628;2023-11-19T15:01:59;29.20;;;6.68;;
24751;SDS011;27246;52.376;4.628;2023-11-19T15:07:04;25.77;;;5.93;;
24751;SDS011;27246;52.376;4.628;2023-11-19T15:12:07;29.27;;;6.65;;
24751;SDS011;27246;52.376;4.628;2023-11-19T15:17:10;26.02;;;5.55;;
24751;SDS011;27246;52.376;4.628;2023-11-19T15:22:23;38.00;;;6.90;;
24751;SDS011;27246;52.376;4.628;2023-11-19T15:28:15;29.55;;;7.28;;
24751;SDS011;27246;52.376;4.628;2023-11-19T15:33:42;29.20;;;6.60;;
24751;SDS011;27246;52.376;4.628;2023-11-19T15:50:06;33.42;;;7.68;;
24751;SDS011;27246;52.376;4.628;2023-11-19T16:01:07;43.15;;;7.63;;
24751;SDS011;27246;52.376;4.628;2023-11-19T16:06:44;41.30;;;9.02;;
24751;SDS011;27246;52.376;4.628;2023-11-19T16:22:58;31.35;;;8.82;;
24751;SDS011;27246;52.376;4.628;2023-11-19T16:28:03;39.45;;;9.40;;
24751;SDS011;27246;52.376;4.628;2023-11-19T16:33:07;29.23;;;8.00;;
24751;SDS011;27246;52.376;4.628;2023-11-19T16:38:21;30.85;;;8.15;;
24751;SDS011;27246;52.376;4.628;2023-11-19T16:43:25;29.25;;;7.38;;
24751;SDS011;27246;52.376;4.628;2023-11-19T17:01:37;30.10;;;8.25;;
24751;SDS011;27246;52.376;4.628;2023-11-19T17:18:14;36.47;;;8.52;;
24751;SDS011;27246;52.376;4.628;2023-11-19T17:23:18;36.17;;;8.50;;
24751;SDS011;27246;52.376;4.628;2023-11-19T17:28:24;32.90;;;7.85;;
24751;SDS011;27246;52.376;4.628;2023-11-19T17:33:29;39.90;;;10.15;;
24751;SDS011;27246;52.376;4.628;2023-11-19T17:38:49;34.88;;;8.23;;
24751;SDS011;27246;52.376;4.628;2023-11-19T17:44:07;34.33;;;8.60;;
24751;SDS011;27246;52.376;4.628;2023-11-19T17:49:22;35.13;;;11.60;;
24751;SDS011;27246;52.376;4.628;2023-11-19T17:54:29;36.72;;;9.45;;
24751;SDS011;27246;52.376;4.628;2023-11-19T17:59:31;37.63;;;8.93;;
24751;SDS011;27246;52.376;4.628;2023-11-19T18:04:33;28.80;;;9.02;;
24751;SDS011;27246;52.376;4.628;2023-11-19T18:09:40;35.17;;;10.20;;
24751;SDS011;27246;52.376;4.628;2023-11-19T18:14:45;33.72;;;7.32;;
24751;SDS011;27246;52.376;4.628;2023-11-19T18:19:51;33.25;;;8.07;;
24751;SDS011;27246;52.376;4.628;2023-11-19T18:25:07;31.85;;;7.60;;
24751;SDS011;27246;52.376;4.628;2023-11-19T18:30:26;29.37;;;6.57;;
24751;SDS011;27246;52.376;4.628;2023-11-19T18:35:29;29.95;;;9.05;;
24751;SDS011;27246;52.376;4.628;2023-11-19T18:40:33;20.63;;;7.15;;
24751;SDS011;27246;52.376;4.628;2023-11-19T18:45:35;24.45;;;7.18;;
24751;SDS011;27246;52.376;4.628;2023-11-19T18:50:37;29.85;;;6.20;;
24751;SDS011;27246;52.376;4.628;2023-11-19T18:56:24;27.25;;;6.57;;
24751;SDS011;27246;52.376;4.628;2023-11-19T19:01:34;19.92;;;7.10;;
24751;SDS011;27246;52.376;4.628;2023-11-19T19:06:36;27.25;;;6.70;;
24751;SDS011;27246;52.376;4.628;2023-11-19T19:11:44;22.00;;;6.57;;
24751;SDS011;27246;52.376;4.628;2023-11-19T19:16:48;27.20;;;5.65;;
24751;SDS011;27246;52.376;4.628;2023-11-19T19:21:55;25.10;;;7.00;;
24751;SDS011;27246;52.376;4.628;2023-11-19T19:26:57;19.05;;;5.55;;
24751;SDS011;27246;52.376;4.628;2023-11-19T19:31:59;26.13;;;9.30;;
24751;SDS011;27246;52.376;4.628;2023-11-19T19:37:02;22.08;;;5.97;;
24751;SDS011;27246;52.376;4.628;2023-11-19T19:42:07;23.17;;;5.32;;
24751;SDS011;27246;52.376;4.628;2023-11-19T19:47:28;18.92;;;5.07;;
24751;SDS011;27246;52.376;4.628;2023-11-19T20:04:17;20.35;;;4.55;;
24751;SDS011;27246;52.376;4.628;2023-11-19T20:09:27;21.02;;;5.50;;
24751;SDS011;27246;52.376;4.628;2023-11-19T20:15:14;25.52;;;5.85;;
24751;SDS011;27246;52.376;4.628;2023-11-19T20:20:58;17.05;;;4.65;;
24751;SDS011;27246;52.376;4.628;2023-11-19T20:26:54;16.98;;;4.55;;
24751;SDS011;27246;52.376;4.628;2023-11-19T20:31:58;22.02;;;5.63;;
24751;SDS011;27246;52.376;4.628;2023-11-19T20:37:12;21.02;;;5.75;;
24751;SDS011;27246;52.376;4.628;2023-11-19T20:42:50;24.08;;;5.55;;
24751;SDS011;27246;52.376;4.628;2023-11-19T20:48:21;23.17;;;5.03;;
24751;SDS011;27246;52.376;4.628;2023-11-19T20:53:56;20.98;;;5.22;;
24751;SDS011;27246;52.376;4.628;2023-11-19T21:04:56;18.35;;;5.30;;
24751;SDS011;27246;52.376;4.628;2023-11-19T21:09:58;16.67;;;5.55;;
24751;SDS011;27246;52.376;4.628;2023-11-19T21:15:01;16.60;;;5.32;;
24751;SDS011;27246;52.376;4.628;2023-11-19T21:31:05;19.30;;;4.97;;
24751;SDS011;27246;52.376;4.628;2023-11-19T21:47:38;14.60;;;4.32;;
24751;SDS011;27246;52.376;4.628;2023-11-19T21:52:41;21.80;;;4.90;;
24751;SDS011;27246;52.376;4.628;2023-11-19T21:57:44;15.05;;;3.90;;
24751;SDS011;27246;52.376;4.628;2023-11-19T22:02:46;21.50;;;3.72;;
24751;SDS011;27246;52.376;4.628;2023-11-19T22:07:48;15.65;;;3.90;;
24751;SDS011;27246;52.376;4.628;2023-11-19T22:12:50;18.33;;;5.25;;
24751;SDS011;27246;52.376;4.628;2023-11-19T22:17:52;13.35;;;3.28;;
24751;SDS011;27246;52.376;4.628;2023-11-19T22:22:55;19.33;;;4.38;;
24751;SDS011;27246;52.376;4.628;2023-11-19T22:27:57;15.48;;;3.50;;
24751;SDS011;27246;52.376;4.628;2023-11-19T22:33:00;18.08;;;3.65;;
24751;SDS011;27246;52.376;4.628;2023-11-19T22:38:02;18.38;;;4.65;;
24751;SDS011;27246;52.376;4.628;2023-11-19T22:43:05;18.27;;;4.45;;
24751;SDS011;27246;52.376;4.628;2023-11-19T22:48:07;18.17;;;3.58;;
24751;SDS011;27246;52.376;4.628;2023-11-19T22:53:09;15.80;;;3.70;;
24751;SDS011;27246;52.376;4.628;2023-11-19T22:58:10;16.55;;;3.60;;
24751;SDS011;27246;52.376;4.628;2023-11-19T23:03:15;17.48;;;3.65;;
24751;SDS011;27246;52.376;4.628;2023-11-19T23:08:17;18.15;;;3.85;;
24751;SDS011;27246;52.376;4.628;2023-11-19T23:13:19;19.55;;;4.00;;
24751;SDS011;27246;52.376;4.628;2023-11-19T23:18:21;18.38;;;3.35;;
24751;SDS011;27246;52.376;4.628;2023-11-19T23:23:24;21.17;;;3.83;;
24751;SDS011;27246;52.376;4.628;2023-11-19T23:28:29;16.30;;;3.47;;
24751;SDS011;27246;52.376;4.628;2023-11-19T23:33:31;13.02;;;3.53;;
24751;SDS011;27246;52.376;4.628;2023-11-19T23:38:33;14.70;;;3.20;;
24751;SDS011;27246;52.376;4.628;2023-11-19T23:43:35;14.50;;;3.65;;
24751;SDS011;27246;52.376;4.628;2023-11-19T23:48:37;14.77;;;4.30;;
24751;SDS011;27246;52.376;4.628;2023-11-19T23:53:59;13.55;;;4.25;;
24751;SDS011;27246;52.376;4.628;2023-11-19T23:59:02;14.80;;;3.25;;
